Terminal Aerodrome Forecast
Issued by NWS Charleston, WV

Current Version | Previous Version | Text Only | Print | Product List | Glossary Off
Versions: 1 2 3 4 5 6 7 8 9 10 11 12 13 14 15 16 17 18 19 20 21 22

000
FTUS41 KRLX 252320
TAFBKW
TAF
KBKW 252320Z 2600/2624 VRB04KT P6SM OVC070
     FM260600 15007KT P6SM SCT050
     FM261300 16009G16KT P6SM -SHRA OVC050=

USA.gov is the U.S. government's official web portal to all federal, state and local government web resources and services.